Latest Weather Observations for Butlers Gorge

IDT60801

Issued at 7:51 pm EST Wednesday 17 July 2024 (issued every 10 minutes, with the page automatically refreshed every 10 minutes)

About weather observations | Map of weather stations | Latest weather observations for TAS | Other Formats
Station Details ID: 096003 Name: BUTLERS GORGE Lat: -42.28 Lon: 146.28 Height: 667.0 m
Data from the previous 72 hours. | See also: Recent months at Butlers Gorge
Date/Time
EST
Temp
°C
App
Temp
°C
Dew
Point
°C
Rel
Hum
%
Delta-T
°C
Wind Press
QNH
hPa
Press
MSL
hPa
Rain since
9am
mm
Dir  Spd
km/h
Gust
km/h
Spd
kts
Gust
kts
17/07:30pm -0.2 -2.7 -0.8 96 0.2 NW 2 6 1 3 - - 0.2
17/07:00pm 0.5 -1.9 -0.4 94 0.3 ENE 2 7 1 4 - - 0.2
17/06:30pm 1.7 -1.3 0.7 93 0.4 NNE 6 9 3 5 - - 0.2
17/06:00pm 2.7 -0.5 0.8 87 0.8 WSW 7 11 4 6 - - 0.0
17/05:30pm 3.5 0.7 -0.3 76 1.5 SW 4 11 2 6 - - 0.0
17/05:00pm 3.7 0.3 -0.3 75 1.6 SW 7 15 4 8 - - 0.0
17/04:30pm 4.0 1.6 0.0 75 1.6 WSW 2 11 1 6 - - 0.0
17/04:00pm 4.0 -0.2 -0.6 72 1.8 WSW 11 19 6 10 - - 0.0
17/03:30pm 5.5 2.6 -1.0 63 2.5 S 4 13 2 7 - - 0.0
17/03:00pm 4.7 -0.1 -2.4 60 2.6 SSW 13 24 7 13 - - 0.0
17/02:30pm 5.1 1.5 -1.8 61 2.6 SSW 7 26 4 14 - - 0.0
17/02:00pm 5.5 0.8 -2.1 58 2.9 SSW 13 22 7 12 - - 0.0
17/01:30pm 5.1 0.8 -1.3 63 2.5 SSE 11 19 6 10 - - 0.0
17/01:00pm 5.2 0.9 -1.3 63 2.5 SSE 11 17 6 9 - - 0.0
17/12:30pm 5.5 1.6 -1.6 60 2.7 SE 9 17 5 9 - - 0.0
17/12:00pm 4.3 0.2 -0.1 73 1.7 S 11 17 6 9 - - 0.0
17/11:30am 4.6 1.0 0.4 74 1.7 SE 9 13 5 7 - - 0.0
17/11:00am 5.3 1.8 1.1 74 1.7 NE 9 13 5 7 - - 0.0
17/10:30am 4.5 1.1 1.9 83 1.1 ENE 9 13 5 7 - - 0.0
17/10:00am 4.4 1.2 2.9 90 0.6 ENE 9 15 5 8 - - 0.0
17/09:30am 4.3 1.0 2.7 89 0.7 ENE 9 19 5 10 - - 0.0
17/09:00am 2.9 0.5 2.3 96 0.2 NE 4 9 2 5 - - 0.0
17/08:30am 2.6 -0.7 2.2 97 0.2 ENE 9 17 5 9 - - 0.0
17/08:00am 2.8 -0.5 2.4 97 0.2 ENE 9 15 5 8 - - 0.0
17/07:30am 3.2 -0.1 2.6 96 0.3 E 9 15 5 8 - - 0.0
17/07:00am 3.7 0.5 3.0 95 0.3 ENE 9 17 5 9 - - 0.0
17/06:30am 4.4 1.7 3.5 94 0.4 SE 7 11 4 6 - - 0.0
17/06:00am 5.0 1.8 3.0 87 0.9 SE 9 15 5 8 - - 0.0
17/05:30am 5.3 2.5 3.3 87 0.9 SE 7 13 4 7 - - 0.0
17/05:00am 5.3 2.3 4.1 92 0.5 SSW 9 15 5 8 - - 0.0
17/04:30am 5.7 2.4 4.3 91 0.6 SSW 11 17 6 9 - - 0.0
17/04:00am 6.1 3.5 4.1 87 0.9 SSW 7 13 4 7 - - 0.0
17/03:30am 6.1 3.6 4.9 92 0.5 SSW 7 13 4 7 - - 0.0
17/03:00am 6.2 3.4 5.2 93 0.5 SSW 9 17 5 9 - - 0.0
17/02:30am 6.4 3.6 5.2 92 0.5 S 9 17 5 9 - - 0.0
17/02:00am 6.7 4.3 5.3 91 0.6 S 7 17 4 9 - - 0.0
17/01:30am 6.6 4.5 5.6 93 0.5 S 6 11 3 6 - - 0.0
17/01:00am 6.8 4.4 5.4 91 0.6 S 7 13 4 7 - - 0.0
17/12:30am 6.9 4.2 5.7 92 0.6 SSE 9 15 5 8 - - 0.0
17/12:00am 7.0 4.0 5.8 92 0.6 S 11 19 6 10 - - 0.0
 
Date/Time
EST
Temp
°C
App
Temp
°C
Dew
Point
°C
Rel
Hum
%
Delta-T
°C
Wind Press
QNH
hPa
Press
MSL
hPa
Rain since
9am
mm
Dir  Spd
km/h
Gust
km/h
Spd
kts
Gust
kts
16/11:30pm 7.1 4.5 5.9 92 0.6 SSW 9 17 5 9 - - 0.0
16/11:00pm 7.3 4.6 5.8 90 0.7 SSW 9 17 5 9 - - 0.0
16/10:30pm 7.4 4.7 5.7 89 0.8 SSW 9 17 5 9 - - 0.0
16/10:00pm 7.5 4.4 5.6 88 0.9 SSW 11 17 6 9 - - 0.0
16/09:30pm 7.5 5.3 5.5 87 0.9 SSW 6 11 3 6 - - 0.0
16/09:00pm 7.7 5.5 5.5 86 1.0 SSE 6 15 3 8 - - 0.0
16/08:30pm 7.7 5.5 5.3 85 1.1 S 6 11 3 6 - - 0.0
16/08:00pm 7.6 5.4 5.2 85 1.1 S 6 9 3 5 - - 0.0
16/07:30pm 7.7 5.4 5.5 86 1.0 ESE 7 17 4 9 - - 0.0
16/07:00pm 7.5 4.8 5.6 88 0.9 S 9 15 5 8 - - 0.0
16/06:30pm 7.5 5.4 5.8 89 0.8 S 6 11 3 6 - - 0.0
16/06:00pm 7.2 5.8 5.7 90 0.7 E 2 7 1 4 - - 0.0
16/05:30pm 7.3 6.0 5.8 90 0.7 ENE 2 9 1 5 - - 0.0
16/05:00pm 7.7 5.4 5.5 86 1.0 ESE 7 15 4 8 - - 0.0
16/04:30pm 8.1 5.2 4.9 80 1.5 S 9 15 5 8 - - 0.0
16/04:00pm 8.6 5.7 4.4 75 1.9 SSW 9 19 5 10 - - 0.0
16/03:30pm 9.3 6.3 4.1 70 2.4 ESE 9 13 5 7 - - 0.0
16/03:00pm 9.3 6.7 4.3 71 2.3 SSW 7 11 4 6 - - 0.0
16/02:30pm 9.4 6.5 4.6 72 2.2 S 9 15 5 8 - - 0.0
16/02:00pm 9.4 6.5 4.4 71 2.3 S 9 17 5 9 - - 0.0
16/01:30pm 9.2 6.1 3.8 69 2.5 SE 9 19 5 10 - - 0.0
16/01:00pm 9.4 6.7 5.4 76 1.9 ESE 9 15 5 8 - - 0.0
16/12:30pm 8.8 5.9 4.6 75 1.9 E 9 22 5 12 - - 0.0
16/12:00pm 8.9 5.7 5.1 77 1.8 ESE 11 15 6 8 - - 0.0
16/11:30am 9.3 5.8 5.5 77 1.8 ENE 13 24 7 13 - - 0.0
16/11:00am 8.6 4.6 4.8 77 1.8 E 15 26 8 14 - - 0.0
16/10:30am 7.7 4.9 5.2 84 1.2 ESE 9 15 5 8 - - 0.0
16/10:00am 7.4 4.3 5.4 87 0.9 ESE 11 20 6 11 - - 0.0
16/09:30am 7.1 4.3 5.3 88 0.8 E 9 19 5 10 - - 0.0
16/09:00am 7.0 4.3 5.6 91 0.7 E 9 13 5 7 - - 17.8
16/08:30am 6.9 4.2 5.5 91 0.6 E 9 13 5 7 - - 17.8
16/08:00am 7.1 4.0 5.6 90 0.7 ESE 11 22 6 12 - - 17.8
16/07:30am 7.2 4.5 5.8 91 0.7 SE 9 20 5 11 - - 17.8
16/07:00am 7.2 4.3 6.3 94 0.4 ESE 11 22 6 12 - - 17.8
16/06:30am 7.4 3.7 6.2 92 0.6 ESE 15 30 8 16 - - 17.8
16/06:00am 7.2 4.8 6.9 98 0.1 ESE 9 17 5 9 - - 17.6
16/05:30am 6.4 4.4 6.3 99 0.0 N 6 7 3 4 - - 17.0
16/05:00am 6.2 5.3 6.1 99 0.0 CALM 0 0 0 0 - - 16.8
16/04:30am 6.4 5.5 6.1 98 0.1 CALM 0 0 0 0 - - 16.6
16/04:00am 6.5 5.2 6.1 97 0.2 E 2 6 1 3 - - 16.6
16/03:30am 6.6 5.7 6.2 97 0.2 CALM 0 4 0 2 - - 16.4
16/03:00am 6.7 5.7 5.8 94 0.4 CALM 0 6 0 3 - - 16.4
16/02:30am 6.9 4.6 5.8 93 0.5 ENE 7 11 4 6 - - 16.4
16/02:00am 7.1 4.4 5.6 90 0.7 SE 9 19 5 10 - - 16.4
16/01:30am 7.1 4.0 5.7 91 0.7 ESE 11 19 6 10 - - 16.4
16/01:00am 6.8 5.5 5.9 94 0.4 E 2 11 1 6 - - 16.4
16/12:30am 7.1 4.5 6.0 93 0.5 E 9 17 5 9 - - 16.4
16/12:00am 7.3 5.3 6.4 94 0.4 ESE 6 13 3 7 - - 16.4
 
Date/Time
EST
Temp
°C
App
Temp
°C
Dew
Point
°C
Rel
Hum
%
Delta-T
°C
Wind Press
QNH
hPa
Press
MSL
hPa
Rain since
9am
mm
Dir  Spd
km/h
Gust
km/h
Spd
kts
Gust
kts
15/11:30pm 7.2 5.7 6.8 97 0.2 ESE 4 9 2 5 - - 16.2
15/11:00pm 7.3 4.8 6.7 96 0.3 E 9 17 5 9 - - 15.8
15/10:30pm 7.4 5.0 6.8 96 0.3 E 9 11 5 6 - - 15.6
15/10:00pm 7.4 5.5 6.8 96 0.3 ESE 6 13 3 7 - - 15.2
15/09:30pm 7.6 5.6 7.0 96 0.3 ESE 7 13 4 7 - - 15.0
15/09:00pm 7.6 5.2 6.9 95 0.3 ESE 9 17 5 9 - - 14.6
15/08:30pm 7.8 5.4 6.9 94 0.4 SE 9 19 5 10 - - 14.4
15/08:00pm 7.8 4.3 7.1 95 0.3 ESE 15 28 8 15 - - 14.2
15/07:30pm 7.9 4.8 7.1 95 0.4 ESE 13 22 7 12 - - 14.0
15/07:00pm 8.1 4.2 7.2 94 0.4 ESE 17 35 9 19 - - 13.8
15/06:30pm 8.2 5.1 7.3 94 0.4 ESE 13 30 7 16 - - 13.6
15/06:00pm 8.2 5.5 7.4 95 0.4 E 11 20 6 11 - - 13.2
15/05:30pm 8.5 5.4 7.4 93 0.5 ESE 13 26 7 14 - - 13.2
15/05:00pm 8.6 6.0 7.7 94 0.4 ESE 11 20 6 11 - - 13.2
15/04:30pm 8.9 5.6 8.1 95 0.4 ESE 15 26 8 14 - - 13.0
15/04:00pm 9.2 6.3 8.3 94 0.5 SSE 13 22 7 12 - - 12.6
15/03:30pm 8.9 6.0 8.0 94 0.4 SSW 13 20 7 11 - - 11.4
15/03:00pm 8.9 6.3 7.8 93 0.5 SSW 11 20 6 11 - - 10.2
15/02:30pm 8.8 5.4 7.6 92 0.6 SW 15 30 8 16 - - 8.2
15/02:00pm 8.7 5.3 7.8 94 0.4 SSW 15 30 8 16 - - 5.0
15/01:30pm 9.0 6.0 7.8 92 0.6 SSW 13 32 7 17 - - 4.6
15/01:00pm 8.8 5.4 7.6 92 0.6 SW 15 24 8 13 - - 4.2
15/12:30pm 8.5 5.0 7.3 92 0.6 SW 15 30 8 16 - - 3.8
15/12:00pm 8.2 5.0 7.0 92 0.6 WSW 13 32 7 17 - - 3.6
15/11:30am 7.8 4.7 7.1 95 0.3 SW 13 28 7 15 - - 3.2
15/11:00am 7.9 5.1 6.8 93 0.5 SW 11 19 6 10 - - 2.4
15/10:30am 8.0 4.4 6.8 92 0.6 SSW 15 26 8 14 - - 2.2
15/10:00am 7.5 4.2 6.6 94 0.4 SW 13 26 7 14 - - 1.6
15/09:30am 7.3 4.4 6.4 94 0.4 SW 11 20 6 11 - - 0.8
15/09:00am 7.2 3.9 6.3 94 0.4 WSW 13 20 7 11 - - 9.4
15/08:30am 6.8 4.6 6.1 95 0.3 SW 7 11 4 6 - - 9.2
15/08:00am 6.6 3.6 5.9 95 0.3 WSW 11 20 6 11 - - 8.8
15/07:30am 6.4 3.0 5.7 95 0.3 WSW 13 22 7 12 - - 8.6
15/07:00am 6.0 2.8 5.3 95 0.3 WSW 11 20 6 11 - - 8.2
15/06:30am 5.9 2.3 5.0 94 0.4 WSW 13 20 7 11 - - 8.2
15/06:00am 5.8 1.4 4.6 92 0.5 SW 17 28 9 15 - - 8.0
15/05:30am 5.6 1.1 4.2 91 0.6 WSW 17 32 9 17 - - 7.8
15/05:00am 5.2 0.1 4.0 92 0.5 WSW 20 33 11 18 - - 7.2
15/04:30am 4.9 -0.7 3.6 91 0.6 WSW 22 41 12 22 - - 6.6
15/04:00am 4.7 -0.9 3.4 91 0.6 SW 22 41 12 22 - - 5.8
15/03:30am 4.3 -0.1 2.8 90 0.6 SW 15 30 8 16 - - 5.6
15/03:00am 4.2 -0.9 3.0 92 0.5 WSW 19 41 10 22 - - 5.2
15/02:30am 3.7 -0.7 2.5 92 0.5 WSW 15 33 8 18 - - 4.6
15/02:00am 3.3 -0.8 2.0 91 0.5 W 13 20 7 11 - - 4.2
15/01:30am 3.1 -1.5 1.6 90 0.6 WSW 15 41 8 22 - - 3.6
15/01:00am 2.9 -2.6 1.6 91 0.5 WSW 20 35 11 19 - - 2.8
15/12:30am 2.8 -3.1 1.8 93 0.4 SW 22 41 12 22 - - 2.0
15/12:00am 2.6 -3.0 1.4 92 0.5 WSW 20 33 11 18 - - 2.0
 
Date/Time
EST
Temp
°C
App
Temp
°C
Dew
Point
°C
Rel
Hum
%
Delta-T
°C
Wind Press
QNH
hPa
Press
MSL
hPa
Rain since
9am
mm
Dir  Spd
km/h
Gust
km/h
Spd
kts
Gust
kts
14/11:30pm 2.5 -3.5 1.3 92 0.5 WSW 22 35 12 19 - - 1.8
14/11:00pm 2.3 -2.7 1.1 92 0.5 WSW 17 39 9 21 - - 1.8
14/10:30pm 2.2 -2.9 0.7 90 0.6 WSW 17 30 9 16 - - 1.8
14/10:00pm 2.1 -2.7 0.5 89 0.6 SW 15 32 8 17 - - 1.8
14/09:30pm 2.1 -3.5 0.2 87 0.7 WSW 19 35 10 19 - - 1.8
14/09:00pm 2.0 -3.2 0.1 87 0.7 WSW 17 30 9 16 - - 1.6
14/08:30pm 2.0 -2.5 -0.1 86 0.8 W 13 22 7 12 - - 1.6
14/08:00pm 2.2 -2.3 -0.4 83 1.0 WSW 13 30 7 16 - - 1.6

Other formats

Comma delimited format used in spreadsheet applications
http://www.bom.gov.au/fwo/IDT60801/IDT60801.94959.axf

JavaScript Object Notation format (JSON) in row-major order
http://www.bom.gov.au/fwo/IDT60801/IDT60801.94959.json

Data quality

Most of these data are generated automatically and are frequently updated. Quality checks on data are not normally performed. It is possible for incorrect values to appear. Refer to information at About Latest Weather Observations and please check the disclaimer before using these data.